createdAt,value
2023-01-13T00:01:26.212Z,37.15
2023-01-13T00:03:53.857Z,32.40
2023-01-13T00:06:26.306Z,32.58
2023-01-13T00:08:54.604Z,36.40
2023-01-13T00:11:22.596Z,39.08
2023-01-13T00:13:50.143Z,41.65
2023-01-13T00:16:18.664Z,38.67
2023-01-13T00:18:46.779Z,38.25
2023-01-13T00:21:22.255Z,39.08
2023-01-13T00:23:51.927Z,41.35
2023-01-13T00:26:22.453Z,38.15
2023-01-13T00:28:58.324Z,42.58
2023-01-13T00:31:27.712Z,35.28
2023-01-13T00:34:01.843Z,48.42
2023-01-13T00:36:31.013Z,31.52
2023-01-13T00:38:59.023Z,35.42
2023-01-13T00:41:27.314Z,33.38
2023-01-13T00:43:54.991Z,31.77
2023-01-13T00:46:23.054Z,30.52
2023-01-13T00:48:51.883Z,39.53
2023-01-13T00:51:21.058Z,38.25
2023-01-13T00:53:51.324Z,31.60
2023-01-13T00:56:38.401Z,33.55
2023-01-13T00:59:08.628Z,33.20
2023-01-13T01:01:36.007Z,29.35
2023-01-13T01:04:03.879Z,30.67
2023-01-13T01:06:31.241Z,29.63
2023-01-13T01:08:59.114Z,30.50
2023-01-13T01:11:29.962Z,38.38
2023-01-13T01:14:02.667Z,29.42
2023-01-13T01:16:31.955Z,38.47
2023-01-13T01:19:00.999Z,36.50
2023-01-13T01:21:29.623Z,31.83
2023-01-13T01:24:00.828Z,33.03
2023-01-13T01:26:29.901Z,34.40
2023-01-13T01:28:57.517Z,32.13
2023-01-13T01:31:33.165Z,29.27
2023-01-13T01:36:30.457Z,34.05
2023-01-13T01:38:59.555Z,27.63
2023-01-13T01:41:30.375Z,29.05
2023-01-13T01:43:59.445Z,34.15
2023-01-13T01:46:29.236Z,29.00
2023-01-13T01:49:06.121Z,31.38
2023-01-13T01:51:37.802Z,28.00
2023-01-13T01:54:09.718Z,27.80
2023-01-13T01:56:39.852Z,27.20
2023-01-13T01:59:07.590Z,37.88
2023-01-13T02:01:35.219Z,33.97
2023-01-13T02:04:11.378Z,40.55
2023-01-13T02:06:39.635Z,30.63
2023-01-13T02:09:07.985Z,28.85
2023-01-13T02:11:54.841Z,30.52
2023-01-13T02:14:25.105Z,32.88
2023-01-13T02:17:16.335Z,29.35
2023-01-13T02:19:55.848Z,33.72
2023-01-13T02:22:39.332Z,27.52
2023-01-13T02:25:24.849Z,24.27
2023-01-13T02:28:04.286Z,24.15
2023-01-13T02:31:06.452Z,22.10
2023-01-13T02:33:57.635Z,23.45
2023-01-13T02:37:20.713Z,23.30
2023-01-13T02:40:08.877Z,23.73
2023-01-13T02:43:12.792Z,28.40
2023-01-13T02:46:14.677Z,25.63
2023-01-13T02:48:46.213Z,24.30
2023-01-13T02:51:17.855Z,22.92
2023-01-13T02:53:51.049Z,23.85
2023-01-13T02:56:20.820Z,27.15
2023-01-13T02:58:50.335Z,22.08
2023-01-13T03:01:18.421Z,19.38
2023-01-13T03:03:47.096Z,20.10
2023-01-13T03:06:29.171Z,21.17
2023-01-13T03:09:09.075Z,24.30
2023-01-13T03:11:59.426Z,25.17
2023-01-13T03:14:45.208Z,24.80
2023-01-13T03:17:19.203Z,24.35
2023-01-13T03:20:07.678Z,28.48
2023-01-13T03:22:58.017Z,24.83
2023-01-13T03:25:41.319Z,26.40
2023-01-13T03:28:21.520Z,36.45
2023-01-13T03:30:55.261Z,20.48
2023-01-13T03:33:29.482Z,24.50
2023-01-13T03:36:02.201Z,24.23
2023-01-13T03:38:34.130Z,19.02
2023-01-13T03:41:07.310Z,24.15
2023-01-13T03:43:57.927Z,33.17
2023-01-13T03:47:04.279Z,24.13
2023-01-13T03:50:02.746Z,24.13
2023-01-13T03:52:56.880Z,25.98
2023-01-13T03:55:31.843Z,25.58
2023-01-13T03:58:06.960Z,24.73
2023-01-13T04:00:44.323Z,24.38
2023-01-13T04:03:20.341Z,23.50
2023-01-13T04:05:56.489Z,21.95
2023-01-13T04:08:28.951Z,24.38
2023-01-13T04:11:05.546Z,24.40
2023-01-13T04:13:39.605Z,25.13
2023-01-13T04:16:08.997Z,24.45
2023-01-13T04:18:38.441Z,21.05
2023-01-13T04:21:06.737Z,23.40
2023-01-13T04:23:34.532Z,26.30
2023-01-13T04:26:01.680Z,29.23
2023-01-13T04:28:29.248Z,28.27
2023-01-13T04:30:56.544Z,28.33
2023-01-13T04:33:24.077Z,28.13
2023-01-13T04:35:52.721Z,32.60
2023-01-13T04:38:21.799Z,32.50
2023-01-13T04:40:49.082Z,33.97
2023-01-13T04:43:16.967Z,27.85
2023-01-13T04:45:44.601Z,27.73
2023-01-13T04:48:12.297Z,27.52
2023-01-13T04:50:39.481Z,30.20
2023-01-13T04:53:07.316Z,30.83
2023-01-13T04:55:35.488Z,22.48
2023-01-13T04:58:07.613Z,31.77
2023-01-13T05:00:35.337Z,30.30
2023-01-13T05:03:03.482Z,29.55
2023-01-13T05:05:31.560Z,28.08
2023-01-13T05:07:59.076Z,27.90
2023-01-13T05:10:27.088Z,30.15
2023-01-13T05:13:12.813Z,45.38
2023-01-13T05:16:00.184Z,55.38
2023-01-13T05:18:29.859Z,45.53
2023-01-13T05:20:57.376Z,34.35
2023-01-13T05:23:42.949Z,31.65
2023-01-13T05:26:10.701Z,31.77
2023-01-13T05:28:37.879Z,31.58
2023-01-13T05:31:05.602Z,31.05
2023-01-13T05:33:34.925Z,34.90
2023-01-13T05:36:03.525Z,38.20
2023-01-13T05:38:30.904Z,40.10
2023-01-13T05:41:20.238Z,41.13
2023-01-13T05:43:47.550Z,37.15
2023-01-13T05:46:17.670Z,41.00
2023-01-13T05:48:45.660Z,54.25
2023-01-13T05:51:13.570Z,61.88
2023-01-13T05:53:41.155Z,62.55
2023-01-13T05:56:09.726Z,51.08
2023-01-13T05:58:37.258Z,44.45
2023-01-13T06:01:08.237Z,40.55
2023-01-13T06:03:36.091Z,39.17
2023-01-13T06:06:04.525Z,47.92
2023-01-13T06:08:32.456Z,78.80
2023-01-13T06:11:00.039Z,52.05
2023-01-13T06:13:27.361Z,49.25
2023-01-13T06:15:59.367Z,50.10
2023-01-13T06:18:27.583Z,48.75
2023-01-13T06:20:55.338Z,51.72
2023-01-13T06:23:22.679Z,61.35
2023-01-13T06:26:00.420Z,60.50
2023-01-13T06:28:27.804Z,62.83
2023-01-13T06:31:00.277Z,62.15
2023-01-13T06:33:37.158Z,67.45
2023-01-13T06:36:12.687Z,74.00
2023-01-13T06:38:44.171Z,80.83
2023-01-13T06:41:11.757Z,64.47
2023-01-13T06:43:40.042Z,54.40
2023-01-13T06:46:08.167Z,28.63
2023-01-13T06:48:35.747Z,30.02
2023-01-13T06:51:04.719Z,34.83
2023-01-13T06:53:32.317Z,27.75
2023-01-13T06:55:59.822Z,24.73
2023-01-13T06:58:27.070Z,21.40
2023-01-13T07:00:54.689Z,20.27
2023-01-13T07:03:21.976Z,18.58
2023-01-13T07:05:54.658Z,18.50
2023-01-13T07:08:23.555Z,39.22
2023-01-13T07:10:51.476Z,40.53
2023-01-13T07:13:37.702Z,46.05
2023-01-13T07:18:35.137Z,39.70
2023-01-13T07:21:06.042Z,37.47
2023-01-13T07:23:42.329Z,48.10
2023-01-13T07:26:11.001Z,54.63
2023-01-13T07:28:39.096Z,68.03
2023-01-13T07:31:18.115Z,50.42
2023-01-13T07:33:45.452Z,51.17
2023-01-13T07:36:13.632Z,45.95
2023-01-13T07:38:41.524Z,39.90
2023-01-13T07:41:31.625Z,37.63
2023-01-13T07:44:00.403Z,34.03
2023-01-13T07:46:27.956Z,38.05
2023-01-13T07:48:55.186Z,41.15
2023-01-13T07:51:22.716Z,41.15
2023-01-13T07:53:50.223Z,41.88
2023-01-13T07:56:18.172Z,41.40
2023-01-13T07:58:50.332Z,33.63
2023-01-13T08:01:19.333Z,36.85
2023-01-13T08:03:46.567Z,31.05
2023-01-13T08:06:14.824Z,23.25
2023-01-13T08:08:42.135Z,25.67
2023-01-13T08:11:09.678Z,47.33
2023-01-13T08:13:37.231Z,30.38
2023-01-13T08:16:14.468Z,29.02
2023-01-13T08:18:42.722Z,22.88
2023-01-13T08:21:13.187Z,21.05
2023-01-13T08:23:44.392Z,19.65
2023-01-13T08:26:15.316Z,31.02
2023-01-13T08:28:42.742Z,20.63
2023-01-13T08:31:13.108Z,19.65
2023-01-13T08:33:40.943Z,15.98
2023-01-13T08:36:10.953Z,17.85
2023-01-13T08:38:38.645Z,14.75
2023-01-13T08:41:15.343Z,27.73
2023-01-13T08:43:42.663Z,23.75
2023-01-13T08:46:10.436Z,18.67
2023-01-13T08:48:38.033Z,16.33
2023-01-13T08:51:08.051Z,14.82
2023-01-13T08:53:38.240Z,14.23
2023-01-13T08:56:13.387Z,28.63
2023-01-13T08:58:41.123Z,28.55
2023-01-13T09:01:11.547Z,44.00
2023-01-13T09:03:39.551Z,57.60
2023-01-13T09:06:07.111Z,31.23
2023-01-13T09:08:34.544Z,33.47
2023-01-13T09:11:22.114Z,26.42
2023-01-13T09:13:49.471Z,24.55
2023-01-13T09:16:17.089Z,21.48
2023-01-13T09:18:44.494Z,18.98
2023-01-13T09:21:13.019Z,22.52
2023-01-13T09:23:40.243Z,23.85
2023-01-13T09:26:09.598Z,24.27
2023-01-13T09:28:37.078Z,16.50
2023-01-13T09:31:05.285Z,14.70
2023-01-13T09:33:51.354Z,14.13
2023-01-13T09:36:19.560Z,12.80
2023-01-13T09:38:46.887Z,14.20
2023-01-13T09:41:44.860Z,12.65
2023-01-13T09:44:20.207Z,14.88
2023-01-13T09:46:52.682Z,16.52
2023-01-13T09:49:40.382Z,20.75
2023-01-13T09:52:19.584Z,19.13
2023-01-13T09:55:23.273Z,19.08
2023-01-13T09:57:50.857Z,19.33
2023-01-13T10:00:23.927Z,15.73
2023-01-13T10:03:03.724Z,14.60
2023-01-13T10:05:52.202Z,12.80
2023-01-13T10:08:29.981Z,14.15
2023-01-13T10:11:29.507Z,10.73
2023-01-13T10:14:01.263Z,14.20
2023-01-13T10:16:42.346Z,12.85
2023-01-13T10:19:17.895Z,10.23
2023-01-13T10:22:07.302Z,10.65
2023-01-13T10:24:50.630Z,11.32
2023-01-13T10:27:29.603Z,9.82
2023-01-13T10:29:59.515Z,14.13
2023-01-13T10:32:26.822Z,11.25
2023-01-13T10:34:57.611Z,11.98
2023-01-13T10:37:28.365Z,18.50
2023-01-13T10:40:01.167Z,15.85
2023-01-13T10:42:29.331Z,16.80
2023-01-13T10:44:59.308Z,14.38
2023-01-13T10:47:30.484Z,14.60
2023-01-13T10:50:25.007Z,9.88
2023-01-13T10:52:57.801Z,11.75
2023-01-13T10:55:34.160Z,11.68
2023-01-13T11:00:46.649Z,13.35
2023-01-13T11:03:16.706Z,13.27
2023-01-13T11:06:00.525Z,14.82
2023-01-13T11:08:50.370Z,11.25
2023-01-13T11:11:39.593Z,13.98
2023-01-13T11:14:33.503Z,15.68
2023-01-13T11:17:10.281Z,11.32
2023-01-13T11:19:43.012Z,11.05
2023-01-13T11:22:25.469Z,12.27
2023-01-13T11:24:59.055Z,13.20
2023-01-13T11:27:55.797Z,17.70
2023-01-13T11:30:37.031Z,22.17
2023-01-13T11:33:10.672Z,14.75
2023-01-13T11:36:13.225Z,13.60
2023-01-13T11:38:51.213Z,16.85
2023-01-13T11:41:30.277Z,11.90
2023-01-13T11:44:10.449Z,14.70
2023-01-13T11:46:38.071Z,15.65
2023-01-13T11:49:05.811Z,14.32
2023-01-13T11:51:38.654Z,16.17
2023-01-13T11:54:22.787Z,17.63
2023-01-13T11:57:18.009Z,22.20
2023-01-13T12:00:04.320Z,16.23
2023-01-13T12:03:14.607Z,27.17
2023-01-13T12:06:03.108Z,17.52
2023-01-13T12:08:55.555Z,11.85
2023-01-13T12:12:06.540Z,15.13
2023-01-13T12:15:08.027Z,12.05
2023-01-13T12:18:00.444Z,10.07
2023-01-13T12:20:39.490Z,11.70
2023-01-13T12:23:18.826Z,16.33
2023-01-13T12:25:51.604Z,21.63
2023-01-13T12:28:43.656Z,24.20
2023-01-13T12:31:14.485Z,29.95
2023-01-13T12:34:24.706Z,15.90
2023-01-13T12:37:14.409Z,11.43
2023-01-13T12:40:06.266Z,9.07
2023-01-13T12:43:13.063Z,11.30
2023-01-13T12:45:40.823Z,11.38
2023-01-13T12:48:46.545Z,11.63
2023-01-13T12:51:25.300Z,16.17
2023-01-13T12:53:55.113Z,13.60
2023-01-13T12:56:45.015Z,12.82
2023-01-13T12:59:21.622Z,14.45
2023-01-13T13:02:10.913Z,17.02
2023-01-13T13:04:52.102Z,15.93
2023-01-13T13:07:38.526Z,13.63
2023-01-13T13:10:30.450Z,16.55
2023-01-13T13:13:18.675Z,12.93
2023-01-13T13:15:51.055Z,17.40
2023-01-13T13:18:20.572Z,14.60
2023-01-13T13:27:20.872Z,16.88
2023-01-13T13:30:13.033Z,13.10
2023-01-13T13:33:01.563Z,17.25
2023-01-13T13:35:43.502Z,14.38
2023-01-13T13:39:12.524Z,16.52
2023-01-13T13:42:03.814Z,14.93
2023-01-13T13:44:59.577Z,17.42
2023-01-13T13:47:36.369Z,18.58
2023-01-13T13:50:20.690Z,16.80
2023-01-13T13:52:55.382Z,23.42
2023-01-13T13:55:25.679Z,22.08
2023-01-13T13:57:56.141Z,25.38
2023-01-13T14:00:27.709Z,37.97
2023-01-13T14:03:02.152Z,17.75
2023-01-13T14:05:36.353Z,17.92
2023-01-13T14:08:16.837Z,16.17
2023-01-13T14:10:46.763Z,27.30
2023-01-13T14:13:18.749Z,49.13
2023-01-13T14:15:47.587Z,18.40
2023-01-13T14:18:18.958Z,49.95
2023-01-13T14:20:59.862Z,57.78
2023-01-13T14:23:30.770Z,114.20
2023-01-13T14:26:13.133Z,44.55
2023-01-13T14:28:44.590Z,17.23
2023-01-13T14:31:13.862Z,21.08
2023-01-13T14:33:50.672Z,19.70
2023-01-13T14:36:33.239Z,23.77
2023-01-13T14:39:05.714Z,22.30
2023-01-13T14:41:49.218Z,19.08
2023-01-13T14:44:46.037Z,22.60
2023-01-13T14:47:28.465Z,27.80
2023-01-13T14:50:00.620Z,34.15
2023-01-13T14:52:30.855Z,26.70
2023-01-13T14:55:05.699Z,23.63
2023-01-13T14:57:42.324Z,19.77
2023-01-13T15:00:14.633Z,19.50
2023-01-13T15:02:58.620Z,25.83
2023-01-13T15:05:27.961Z,33.20
2023-01-13T15:08:06.791Z,54.40
2023-01-13T15:10:55.050Z,21.63
2023-01-13T15:13:32.313Z,14.20
2023-01-13T15:16:03.244Z,14.98
2023-01-13T15:18:32.931Z,20.20
2023-01-13T15:21:00.499Z,13.52
2023-01-13T15:23:27.764Z,18.55
2023-01-13T15:25:55.429Z,17.50
2023-01-13T15:28:26.862Z,15.43
2023-01-13T15:31:00.804Z,14.65
2023-01-13T15:33:28.105Z,27.17
2023-01-13T15:35:56.336Z,126.55
2023-01-13T15:38:24.926Z,51.35
2023-01-13T15:40:53.107Z,68.03
2023-01-13T15:43:42.088Z,53.38
2023-01-13T15:46:34.705Z,46.95
2023-01-13T15:49:11.136Z,19.35
2023-01-13T15:51:40.452Z,18.33
2023-01-13T15:54:09.992Z,19.67
2023-01-13T15:56:44.703Z,20.95
2023-01-13T15:59:23.248Z,19.73
2023-01-13T16:01:51.644Z,23.23
2023-01-13T16:04:19.275Z,28.08
2023-01-13T16:06:50.642Z,36.10
2023-01-13T16:09:18.583Z,42.22
2023-01-13T16:11:46.544Z,41.20
2023-01-13T16:14:13.936Z,33.25
2023-01-13T16:16:43.839Z,20.83
2023-01-13T16:19:13.325Z,23.88
2023-01-13T16:21:44.236Z,31.10
2023-01-13T16:24:12.579Z,30.00
2023-01-13T16:26:42.010Z,30.52
2023-01-13T16:29:12.755Z,35.75
2023-01-13T16:31:40.466Z,49.08
2023-01-13T16:34:07.805Z,50.65
2023-01-13T16:36:37.240Z,43.00
2023-01-13T16:39:05.741Z,50.80
2023-01-13T16:41:37.696Z,64.70
2023-01-13T16:44:06.771Z,63.97
2023-01-13T16:46:37.438Z,49.28
2023-01-13T16:49:06.953Z,54.92
2023-01-13T16:51:39.028Z,39.25
2023-01-13T16:54:09.597Z,36.13
2023-01-13T16:56:39.255Z,29.63
2023-01-13T16:59:09.487Z,31.55
2023-01-13T17:01:39.772Z,30.55
2023-01-13T17:04:13.883Z,38.15
2023-01-13T17:07:07.099Z,39.53
2023-01-13T17:09:36.417Z,41.50
2023-01-13T17:12:06.193Z,130.35
2023-01-13T17:14:33.596Z,101.75
2023-01-13T17:17:04.369Z,88.80
2023-01-13T17:19:38.655Z,81.53
2023-01-13T17:22:06.438Z,91.70
2023-01-13T17:24:36.116Z,75.88
2023-01-13T17:27:06.597Z,62.78
2023-01-13T17:29:35.900Z,87.15
2023-01-13T17:32:05.258Z,65.10
2023-01-13T17:34:34.051Z,40.83
2023-01-13T17:37:06.873Z,28.33
2023-01-13T17:39:34.615Z,19.10
2023-01-13T17:42:02.399Z,19.65
2023-01-13T17:44:31.028Z,17.23
2023-01-13T17:47:01.320Z,10.60
2023-01-13T17:49:28.921Z,13.02
2023-01-13T17:51:57.543Z,12.32
2023-01-13T17:54:27.832Z,11.10
2023-01-13T17:56:59.420Z,9.93
2023-01-13T17:59:28.947Z,8.90
2023-01-13T18:01:58.678Z,6.82
2023-01-13T18:04:31.139Z,6.45
2023-01-13T18:06:58.896Z,7.70
2023-01-13T18:09:26.981Z,8.27
2023-01-13T18:11:54.727Z,8.93
2023-01-13T18:14:22.740Z,6.40
2023-01-13T18:16:51.532Z,6.70
2023-01-13T18:19:37.535Z,7.05
2023-01-13T18:22:23.744Z,8.63
2023-01-13T18:25:09.755Z,18.25
2023-01-13T18:27:40.446Z,39.80
2023-01-13T18:30:09.052Z,43.03
2023-01-13T18:32:37.557Z,44.92
2023-01-13T18:35:10.418Z,77.28
2023-01-13T18:37:42.370Z,56.72
2023-01-13T18:40:13.366Z,71.90
2023-01-13T18:42:58.530Z,53.15
2023-01-13T18:45:31.390Z,93.40
2023-01-13T18:48:01.824Z,66.95
2023-01-13T18:50:30.077Z,183.93
2023-01-13T18:52:58.036Z,85.93
2023-01-13T18:55:26.066Z,49.67
2023-01-13T18:57:54.094Z,67.63
2023-01-13T19:00:22.877Z,40.58
2023-01-13T19:05:35.440Z,36.17
2023-01-13T19:08:04.256Z,437.50
2023-01-13T19:10:32.896Z,462.55
2023-01-13T19:13:01.848Z,346.90
2023-01-13T19:15:29.650Z,189.20
2023-01-13T19:17:57.474Z,99.82
2023-01-13T19:20:24.929Z,98.85
2023-01-13T19:22:54.645Z,66.50
2023-01-13T19:25:22.136Z,88.43
2023-01-13T19:27:49.849Z,91.93
2023-01-13T19:30:17.752Z,78.82
2023-01-13T19:32:45.576Z,85.20
2023-01-13T19:35:17.405Z,63.63
2023-01-13T19:37:45.889Z,40.70
2023-01-13T19:40:14.171Z,41.30
2023-01-13T19:43:02.310Z,37.38
2023-01-13T19:45:32.249Z,51.22
2023-01-13T19:48:05.943Z,54.65
2023-01-13T19:50:40.200Z,45.85
2023-01-13T19:53:14.653Z,38.55
2023-01-13T19:55:49.420Z,110.07
2023-01-13T19:58:19.284Z,67.43
2023-01-13T20:00:47.801Z,66.30
2023-01-13T20:03:17.160Z,64.45
2023-01-13T20:05:44.547Z,106.15
2023-01-13T20:08:12.955Z,80.32
2023-01-13T20:10:40.839Z,55.10
2023-01-13T20:13:08.809Z,60.30
2023-01-13T20:15:38.399Z,62.47
2023-01-13T20:18:06.444Z,58.63
2023-01-13T20:20:33.832Z,53.22
2023-01-13T20:23:01.522Z,50.42
2023-01-13T20:25:29.078Z,42.10
2023-01-13T20:27:57.395Z,47.20
2023-01-13T20:30:24.897Z,39.22
2023-01-13T20:32:52.930Z,36.08
2023-01-13T20:35:20.352Z,35.80
2023-01-13T20:37:47.987Z,15.63
2023-01-13T20:40:16.265Z,13.60
2023-01-13T20:42:47.138Z,11.52
2023-01-13T20:45:18.205Z,11.90
2023-01-13T20:47:46.500Z,12.50
2023-01-13T20:50:14.484Z,10.90
2023-01-13T20:52:42.505Z,9.00
2023-01-13T20:55:10.449Z,8.23
2023-01-13T20:57:38.439Z,7.65
2023-01-13T21:00:06.985Z,8.13
2023-01-13T21:02:34.742Z,7.47
2023-01-13T21:05:02.225Z,8.68
2023-01-13T21:07:29.888Z,8.50
2023-01-13T21:09:57.940Z,10.18
2023-01-13T21:12:44.341Z,8.70
2023-01-13T21:15:18.674Z,7.55
2023-01-13T21:18:06.143Z,8.35
2023-01-13T21:20:35.537Z,6.85
2023-01-13T21:23:04.629Z,7.78
2023-01-13T21:25:35.156Z,7.55
2023-01-13T21:28:06.205Z,7.50
2023-01-13T21:30:34.358Z,6.32
2023-01-13T21:33:04.263Z,8.23
2023-01-13T21:35:31.758Z,7.00
2023-01-13T21:37:59.675Z,7.20
2023-01-13T21:40:27.141Z,8.15
2023-01-13T21:43:13.168Z,7.18
2023-01-13T21:45:58.894Z,6.50
2023-01-13T21:48:26.605Z,6.95
2023-01-13T21:50:55.200Z,6.60
2023-01-13T21:53:22.906Z,6.35
2023-01-13T21:55:53.034Z,6.43
2023-01-13T21:58:20.615Z,6.72
2023-01-13T22:00:49.675Z,7.80
2023-01-13T22:03:18.870Z,6.45
2023-01-13T22:05:46.697Z,6.30
2023-01-13T22:08:14.322Z,8.00
2023-01-13T22:11:00.863Z,7.88
2023-01-13T22:13:48.072Z,5.18
2023-01-13T22:16:15.822Z,4.80
2023-01-13T22:18:43.425Z,5.75
2023-01-13T22:21:11.367Z,5.15
2023-01-13T22:23:38.866Z,4.53
2023-01-13T22:26:08.011Z,4.25
2023-01-13T22:28:42.846Z,4.07
2023-01-13T22:31:12.764Z,4.57
2023-01-13T22:33:41.577Z,3.90
2023-01-13T22:36:10.152Z,4.25
2023-01-13T22:38:38.000Z,4.45
2023-01-13T22:41:07.593Z,3.50
2023-01-13T22:43:36.302Z,3.30
2023-01-13T22:46:12.473Z,3.70
2023-01-13T22:48:40.728Z,3.60
2023-01-13T22:51:11.203Z,3.72
2023-01-13T22:53:38.935Z,3.85
2023-01-13T22:56:07.198Z,4.40
2023-01-13T22:58:34.785Z,3.10
2023-01-13T23:01:15.832Z,2.42
2023-01-13T23:03:47.686Z,2.90
2023-01-13T23:06:15.762Z,2.63
2023-01-13T23:08:43.316Z,2.13
2023-01-13T23:11:13.129Z,2.33
2023-01-13T23:13:43.400Z,1.65
2023-01-13T23:16:13.732Z,1.88
2023-01-13T23:18:48.065Z,1.42
2023-01-13T23:21:21.568Z,2.20
2023-01-13T23:23:49.615Z,1.90
2023-01-13T23:26:17.704Z,2.40
2023-01-13T23:28:45.253Z,2.10
2023-01-13T23:31:19.035Z,2.05
2023-01-13T23:33:47.485Z,1.95
2023-01-13T23:36:20.719Z,1.90
2023-01-13T23:38:48.945Z,2.33
2023-01-13T23:41:20.662Z,1.30
2023-01-13T23:43:56.785Z,1.70
2023-01-13T23:46:24.361Z,1.40
2023-01-13T23:48:52.651Z,1.52
2023-01-13T23:51:21.499Z,1.48
2023-01-13T23:53:50.759Z,1.70
2023-01-13T23:56:21.998Z,1.48
2023-01-13T23:58:49.955Z,1.40
